Thursday, August 24, 2017, 1:04 AM EDT
Back to Local

KMTP, Montauk Airport

Location: Montauk, NY, United States Lat: 41.067
Local Time: 1:04 AM EDT ( 5:04 GMT) Lon: -71.917
Time Zone: US/Eastern Elev: 6 ft

Show me the last for .
Show Coded

Time T Td Feel RH Dir Speed Gust Alt SLP Vis Weather Sky Remarks
2017-08-24 00:54 62 60 - 93 - Calm - 29.89 29.88 0 24-hr Min Temp (1am): 62.1°F
24-hr Max Temp (1am): 82.0°F
2017-08-23 23:54 63 61 - 93 - Calm - 29.87 29.87 0 None
2017-08-23 22:54 63 61 - 93 - Calm - 29.87 29.86 0 None
2017-08-23 21:54 65 62 - 90 - Calm - 29.87 29.86 0 None
2017-08-23 20:54 68 65 - 89 - Calm - 29.86 29.85 0 None
2017-08-23 19:54 73 66 77 78 - Calm - 29.84 29.84 0 6-hr Min Temp (8pm): 73.0°F
6-hr Max Temp (8pm): 82.0°F
2017-08-23 18:54 76 63 79 64 Variable 6 - 29.83 29.82 0 None
2017-08-23 17:54 78 62 80 57 280° 7 - 29.81 29.81 0 None
2017-08-23 16:54 80 60 81 50 270° 8 - 29.81 29.80 0 None
2017-08-23 15:54 80 64 82 58 260° 7 - 29.81 29.80 0 None
2017-08-23 14:54 80 64 82 58 270° 10 - 29.81 29.80 0 None
2017-08-23 13:54 81 67 84 62 Variable 6 - 29.81 29.81 0 6-hr Min Temp (2pm): 73.0°F
6-hr Max Temp (2pm): 82.0°F
2017-08-23 12:54 79 68 82 69 280° 8 - 29.81 29.81 0 None
2017-08-23 11:54 78 72 82 81 270° 8 - 29.82 29.81 0 None
2017-08-23 10:54 76 71 80 84 260° 5 - 29.81 29.81 0 None
2017-08-23 09:54 76 72 80 87 270° 6 - 29.80 29.80 0 None
2017-08-23 08:54 76 72 80 87 250° 5 - 29.79 29.79 0 None
2017-08-23 07:54 73 72 77 96 - Calm - 29.78 29.77 0 6-hr Precip Total (8am): 0.01"
24-hr Precip Total (8am): 0.01"
6-hr Min Temp (8am): 72.0°F
6-hr Max Temp (8am): 75.0°F
2017-08-23 06:54 72 71 77 97 210° 3 - 29.76 29.76 0 None
2017-08-23 05:54 73 71 77 93 230° 8 - 29.76 29.75 0 None
2017-08-23 04:54 73 71 77 93 230° 8 - 29.75 29.75 0 6-hr Precip Total (5am): 0.01"
2017-08-23 03:54 73 72 77 96 230° 8 - 29.76 29.76 0 None
2017-08-23 02:54 75 74 80 96 220° 8 - 29.77 29.76 0 1-hr Precip Total: 0.01"
2017-08-23 01:54 75 74 80 96 220° 8 - 29.78 29.78 0 6-hr Min Temp (2am): 73.9°F
6-hr Max Temp (2am): 75.0°F

Support USWX by starting your Amazon purchase here.